Time;durP1;ratioP1;P1;durP2;ratioP2;P2;SDS_P1;SDS_P2;PMS_P1;PMS_P2;Temp;Humidity;BMP_temperature;BMP_pressure;BME280_temperature;BME280_humidity;BME280_pressure;Samples;Min_cycle;Max_cycle;Signal;HPM_P1;HPM_P2
2021/03/11 00:00:12;;;;;;;8.00;5.40;;;6.00;63.40;;;;;;2089550;28;20169;-65
2021/03/11 00:01:13;;;;;;;7.55;4.95;;;6.00;63.80;;;;;;2088894;28;20271;-65
2021/03/11 00:02:13;;;;;;;8.67;5.20;;;5.90;63.40;;;;;;2080431;28;20186;-65
2021/03/11 00:03:21;;;;;;;7.83;5.67;;;5.90;63.50;;;;;;2080538;28;20223;-65
2021/03/11 00:04:22;;;;;;;6.00;4.80;;;5.90;63.60;;;;;;2089443;28;20182;-65
2021/03/11 00:05:22;;;;;;;7.57;5.23;;;5.90;62.80;;;;;;2089394;28;20172;-65
2021/03/11 00:06:23;;;;;;;7.00;4.90;;;5.90;63.20;;;;;;2089185;28;20179;-65
2021/03/11 00:07:24;;;;;;;6.83;4.87;;;5.90;64.90;;;;;;2089368;28;20638;-65
2021/03/11 00:08:24;;;;;;;9.77;4.70;;;5.90;64.60;;;;;;2089204;28;20218;-65
2021/03/11 00:09:25;;;;;;;11.57;4.50;;;5.90;64.20;;;;;;2089469;28;20183;-65
2021/03/11 00:10:26;;;;;;;5.90;4.17;;;6.00;66.20;;;;;;2089177;28;20178;-64
2021/03/11 00:11:28;;;;;;;9.20;4.07;;;6.00;67.10;;;;;;2088771;28;20261;-65
2021/03/11 00:12:29;;;;;;;5.18;3.88;;;6.10;67.50;;;;;;2080438;28;20211;-65
2021/03/11 00:13:30;;;;;;;7.27;4.23;;;6.10;68.30;;;;;;2080560;28;20191;-66
2021/03/11 00:14:30;;;;;;;8.53;4.00;;;6.10;69.60;;;;;;2089232;28;20184;-64
2021/03/11 00:15:32;;;;;;;6.13;3.87;;;6.10;71.40;;;;;;2089549;28;20707;-65
2021/03/11 00:16:33;;;;;;;5.30;3.80;;;6.00;72.70;;;;;;2088920;28;20203;-65
2021/03/11 00:17:33;;;;;;;5.33;3.90;;;6.00;73.50;;;;;;2089483;28;20171;-64
2021/03/11 00:18:34;;;;;;;7.17;3.40;;;6.00;74.20;;;;;;2089274;28;20191;-64
2021/03/11 00:19:35;;;;;;;5.43;3.40;;;6.00;75.40;;;;;;2089250;28;20642;-67
2021/03/11 00:20:36;;;;;;;4.93;3.40;;;6.00;76.80;;;;;;2089195;28;20633;-67
2021/03/11 00:21:37;;;;;;;4.90;3.03;;;6.00;78.80;;;;;;2088746;28;20533;-67
2021/03/11 00:22:38;;;;;;;6.47;3.70;;;5.90;79.10;;;;;;2089021;28;20218;-66
2021/03/11 00:23:39;;;;;;;5.57;3.72;;;6.00;80.50;;;;;;2089547;28;20187;-66
2021/03/11 00:24:39;;;;;;;5.57;3.33;;;5.90;81.20;;;;;;2089871;28;20187;-66
2021/03/11 00:25:40;;;;;;;4.83;3.43;;;5.90;81.80;;;;;;2091145;28;20186;-66
2021/03/11 00:26:41;;;;;;;5.73;3.53;;;5.90;82.80;;;;;;2090854;28;20202;-66
2021/03/11 00:27:42;;;;;;;6.82;3.35;;;5.90;82.70;;;;;;2090893;28;20638;-66
2021/03/11 00:28:43;;;;;;;5.28;3.55;;;5.90;84.20;;;;;;2081975;28;20255;-66
2021/03/11 00:29:43;;;;;;;4.50;3.40;;;5.80;84.50;;;;;;2082197;28;20189;-67
2021/03/11 00:30:45;;;;;;;5.07;3.27;;;5.80;86.30;;;;;;2081919;28;20275;-67
2021/03/11 00:31:45;;;;;;;5.30;3.60;;;5.80;86.10;;;;;;2081672;28;20578;-66
2021/03/11 00:32:47;;;;;;;4.80;3.43;;;5.80;86.70;;;;;;2090727;28;20199;-66
2021/03/11 00:33:48;;;;;;;5.63;3.35;;;5.80;88.30;;;;;;2091110;28;20258;-66
2021/03/11 00:34:49;;;;;;;6.13;3.27;;;5.80;88.70;;;;;;2090776;28;20667;-66
2021/03/11 00:35:50;;;;;;;5.20;3.20;;;5.80;88.70;;;;;;2090902;28;20229;-66
2021/03/11 00:36:51;;;;;;;7.90;3.65;;;5.80;90.00;;;;;;2090747;28;20207;-66
2021/03/11 00:37:51;;;;;;;4.63;3.03;;;5.80;89.20;;;;;;2091012;28;20179;-66
2021/03/11 00:38:53;;;;;;;4.60;3.30;;;5.80;90.20;;;;;;2090789;28;20230;-66
2021/03/11 00:39:54;;;;;;;4.13;3.28;;;5.80;90.60;;;;;;2091098;28;20191;-66
2021/03/11 00:40:54;;;;;;;5.87;3.07;;;5.80;90.80;;;;;;2090187;28;20596;-66
2021/03/11 00:41:55;;;;;;;4.23;3.10;;;5.80;91.30;;;;;;2090911;28;20207;-66
2021/03/11 00:42:56;;;;;;;5.03;3.30;;;5.80;91.70;;;;;;2090611;28;20218;-66
2021/03/11 00:43:56;;;;;;;5.37;3.37;;;5.80;92.70;;;;;;2090927;28;20187;-66
2021/03/11 00:44:57;;;;;;;4.27;3.00;;;5.80;93.30;;;;;;2090812;28;20186;-66
2021/03/11 00:45:58;;;;;;;4.37;3.10;;;5.80;93.30;;;;;;2090900;28;20243;-66
2021/03/11 00:46:58;;;;;;;4.67;2.90;;;5.70;94.10;;;;;;2090578;28;20247;-66
2021/03/11 00:47:59;;;;;;;5.17;3.23;;;5.70;94.40;;;;;;2090897;28;20213;-66
2021/03/11 00:49:00;;;;;;;4.60;3.30;;;5.70;94.80;;;;;;2090938;28;20218;-66
2021/03/11 00:50:01;;;;;;;3.40;2.90;;;5.70;95.40;;;;;;2081858;28;20273;-66
2021/03/11 00:51:02;;;;;;;5.50;2.78;;;5.70;95.80;;;;;;2081475;28;20196;-66
2021/03/11 00:52:04;;;;;;;9.27;3.42;;;5.70;95.70;;;;;;2090761;28;20299;-66
2021/03/11 00:53:05;;;;;;;4.07;3.08;;;5.70;96.10;;;;;;2090842;28;20600;-66
2021/03/11 00:54:05;;;;;;;6.25;3.35;;;5.60;96.50;;;;;;2090922;28;20815;-66
2021/03/11 00:55:10;;;;;;;5.53;3.10;;;5.60;96.90;;;;;;2090741;28;20197;-66
2021/03/11 00:56:11;;;;;;;4.05;3.08;;;5.60;97.40;;;;;;2090709;28;20253;-67
2021/03/11 00:57:11;;;;;;;6.10;3.30;;;5.60;97.40;;;;;;2081909;28;20183;-66
2021/03/11 00:58:12;;;;;;;4.83;3.20;;;5.60;97.50;;;;;;2081905;28;20171;-66
2021/03/11 00:59:13;;;;;;;4.83;3.17;;;5.60;97.60;;;;;;2090831;28;20194;-66
2021/03/11 01:00:19;;;;;;;4.27;3.20;;;5.60;97.70;;;;;;2090694;28;20889;-66
2021/03/11 01:01:19;;;;;;;4.82;3.15;;;5.70;97.70;;;;;;2090315;28;20398;-66
2021/03/11 01:02:20;;;;;;;4.30;3.17;;;5.60;97.20;;;;;;2090798;28;20173;-67
2021/03/11 01:03:21;;;;;;;4.20;3.27;;;5.70;97.10;;;;;;2090699;28;20253;-66
2021/03/11 01:04:22;;;;;;;4.60;2.53;;;5.60;97.30;;;;;;2081846;28;20217;-66
2021/03/11 01:05:28;;;;;;;4.70;2.90;;;5.70;97.40;;;;;;2081973;28;20178;-67
2021/03/11 01:06:29;;;;;;;4.10;3.05;;;5.70;97.20;;;;;;2090265;28;20194;-67
2021/03/11 01:07:29;;;;;;;4.30;3.23;;;5.70;96.50;;;;;;2090701;28;20959;-66
2021/03/11 01:08:30;;;;;;;4.37;2.73;;;5.70;96.40;;;;;;2090725;28;20178;-66
2021/03/11 01:09:31;;;;;;;5.40;3.03;;;5.70;96.30;;;;;;2090704;28;20213;-66
2021/03/11 01:10:34;;;;;;;4.00;3.05;;;5.70;95.50;;;;;;2090858;28;20202;-66
2021/03/11 01:11:35;;;;;;;3.25;2.63;;;5.80;95.80;;;;;;2090010;28;20276;-66
2021/03/11 01:12:36;;;;;;;5.17;2.67;;;5.80;95.80;;;;;;2090563;28;20191;-66
2021/03/11 01:13:38;;;;;;;5.20;3.00;;;5.80;95.40;;;;;;2090527;28;20190;-66
2021/03/11 01:14:40;;;;;;;4.22;3.13;;;5.80;95.10;;;;;;2090742;28;20187;-66
2021/03/11 01:15:42;;;;;;;6.22;3.33;;;5.80;95.00;;;;;;2090603;28;20195;-66
2021/03/11 01:16:47;;;;;;;3.42;2.60;;;5.80;93.80;;;;;;2073268;28;20202;-66
2021/03/11 01:17:48;;;;;;;5.15;3.20;;;5.90;94.20;;;;;;2074748;28;20185;-66
2021/03/11 01:18:49;;;;;;;4.80;3.27;;;5.90;93.70;;;;;;2090644;28;20602;-66
2021/03/11 01:19:50;;;;;;;6.03;2.97;;;5.90;93.40;;;;;;2090706;28;20813;-66
2021/03/11 01:20:50;;;;;;;4.10;2.80;;;6.00;93.30;;;;;;2089904;28;20190;-67
2021/03/11 01:21:51;;;;;;;3.97;2.67;;;5.90;93.20;;;;;;2090750;28;20252;-66
2021/03/11 01:22:52;;;;;;;5.07;3.27;;;5.90;93.70;;;;;;2090521;28;20195;-66
2021/03/11 01:23:52;;;;;;;4.40;3.20;;;5.90;93.50;;;;;;2090610;28;20224;-66
2021/03/11 01:24:53;;;;;;;4.07;2.90;;;6.00;93.20;;;;;;2090321;28;20178;-66
2021/03/11 01:25:54;;;;;;;7.10;3.33;;;6.00;92.90;;;;;;2090454;28;20599;-66
2021/03/11 01:26:54;;;;;;;4.53;3.10;;;6.00;91.90;;;;;;2090467;28;20232;-66
2021/03/11 01:27:55;;;;;;;5.30;3.20;;;6.00;92.00;;;;;;2090509;28;20183;-66
2021/03/11 01:28:56;;;;;;;4.53;2.90;;;6.00;92.40;;;;;;2090499;28;20611;-66
2021/03/11 01:29:57;;;;;;;4.47;2.93;;;6.00;92.10;;;;;;2090440;28;20190;-66
2021/03/11 01:30:57;;;;;;;4.53;3.13;;;5.90;92.20;;;;;;2080745;28;20596;-66
2021/03/11 01:31:58;;;;;;;4.67;3.23;;;6.00;92.00;;;;;;2073441;28;20196;-66
2021/03/11 01:32:59;;;;;;;4.57;3.40;;;6.00;91.30;;;;;;2081532;28;20176;-66
2021/03/11 01:33:59;;;;;;;5.90;3.73;;;5.90;91.40;;;;;;2090592;28;20693;-66
2021/03/11 01:35:00;;;;;;;4.97;3.20;;;5.90;91.50;;;;;;2090061;28;20187;-66
2021/03/11 01:36:01;;;;;;;6.07;3.43;;;6.00;90.60;;;;;;2081250;28;20223;-66
2021/03/11 01:37:02;;;;;;;6.60;3.63;;;6.00;90.80;;;;;;2081464;28;20446;-66
2021/03/11 01:38:03;;;;;;;5.27;3.60;;;6.00;90.30;;;;;;2090657;28;20734;-66
2021/03/11 01:39:04;;;;;;;5.53;3.50;;;6.00;89.40;;;;;;2090371;28;20184;-66
2021/03/11 01:40:07;;;;;;;5.70;3.72;;;6.00;90.20;;;;;;2090419;28;20182;-66
2021/03/11 01:41:08;;;;;;;6.75;3.60;;;6.00;90.20;;;;;;2089536;28;20191;-66
2021/03/11 01:42:09;;;;;;;5.20;3.40;;;6.00;88.70;;;;;;2090306;28;20217;-66
2021/03/11 01:43:09;;;;;;;4.77;3.53;;;6.00;89.30;;;;;;2090378;28;20183;-65
2021/03/11 01:44:10;;;;;;;5.23;3.77;;;6.00;89.70;;;;;;2090424;28;20698;-66
2021/03/11 01:45:12;;;;;;;5.60;3.40;;;5.90;84.70;;;;;;2090257;28;20171;-66
2021/03/11 01:46:12;;;;;;;5.40;3.75;;;6.00;83.30;;;;;;2090225;28;20265;-66
2021/03/11 01:47:13;;;;;;;6.27;3.90;;;6.10;84.50;;;;;;2090214;28;20184;-66
2021/03/11 01:48:14;;;;;;;7.17;4.10;;;6.10;85.10;;;;;;2090416;28;20321;-66
2021/03/11 01:49:14;;;;;;;5.33;4.20;;;6.10;81.50;;;;;;2090302;28;20191;-66
2021/03/11 01:50:15;;;;;;;8.20;4.70;;;6.10;79.70;;;;;;2090375;28;20263;-66
2021/03/11 01:51:18;;;;;;;7.17;4.50;;;6.20;80.20;;;;;;2089707;28;20278;-66
2021/03/11 01:52:19;;;;;;;6.03;4.65;;;6.20;78.30;;;;;;2081368;28;20186;-66
2021/03/11 01:53:20;;;;;;;7.10;4.00;;;6.30;76.30;;;;;;2081628;28;20252;-66
2021/03/11 01:54:23;;;;;;;7.23;4.33;;;6.30;75.10;;;;;;2090443;28;20193;-66
2021/03/11 01:55:25;;;;;;;7.40;5.00;;;6.40;73.20;;;;;;2081470;28;20215;-65
2021/03/11 01:56:26;;;;;;;7.43;4.72;;;6.40;72.70;;;;;;2081481;28;20226;-66
2021/03/11 01:57:28;;;;;;;6.90;4.53;;;6.50;71.60;;;;;;2090024;28;20187;-66
2021/03/11 01:58:28;;;;;;;6.22;4.68;;;6.50;71.60;;;;;;2081383;28;20192;-66
2021/03/11 01:59:29;;;;;;;6.20;4.40;;;6.50;72.20;;;;;;2073080;28;20278;-66
2021/03/11 02:00:30;;;;;;;6.97;4.28;;;6.50;71.70;;;;;;2081480;28;20257;-66
2021/03/11 02:01:31;;;;;;;6.67;4.50;;;6.60;71.30;;;;;;2089537;28;20639;-66
2021/03/11 02:02:32;;;;;;;7.47;4.60;;;6.60;70.70;;;;;;2090181;28;20183;-66
2021/03/11 02:03:33;;;;;;;7.83;4.80;;;6.60;70.40;;;;;;2081026;28;20211;-66
2021/03/11 02:04:34;;;;;;;7.13;4.43;;;6.70;70.70;;;;;;2081458;28;20204;-66
2021/03/11 02:05:34;;;;;;;7.40;4.57;;;6.70;71.10;;;;;;2081340;28;20191;-66
2021/03/11 02:06:35;;;;;;;7.13;4.60;;;6.60;71.30;;;;;;2081355;28;20294;-66
2021/03/11 02:07:36;;;;;;;7.10;4.80;;;6.60;71.60;;;;;;2089963;28;20203;-66
2021/03/11 02:08:36;;;;;;;6.43;4.70;;;6.60;71.80;;;;;;2089927;28;20192;-66
2021/03/11 02:09:37;;;;;;;6.73;4.43;;;6.70;72.90;;;;;;2090327;28;20274;-66
2021/03/11 02:10:38;;;;;;;7.30;4.47;;;6.70;73.80;;;;;;2090344;28;20277;-66
2021/03/11 02:11:56;;;;;;;5.47;4.00;;;6.70;76.40;;;;;;2089542;28;20469;-66
2021/03/11 02:13:23;;;;;;;6.00;3.97;;;6.70;77.60;;;;;;2081154;28;20925;-66
2021/03/11 02:14:42;;;;;;;5.80;3.58;;;6.60;81.80;;;;;;2085175;28;20194;-66
2021/03/11 02:16:11;;;;;;;6.28;3.60;;;6.60;85.00;;;;;;2081132;28;20648;-66
2021/03/11 02:17:17;;;;;;;4.20;3.30;;;6.60;85.40;;;;;;2081051;28;20192;-66
2021/03/11 02:18:31;;;;;;;4.82;3.65;;;6.60;87.20;;;;;;2073274;28;20188;-66
2021/03/11 02:19:59;;;;;;;6.70;3.53;;;6.60;88.50;;;;;;2074794;28;20173;-66
2021/03/11 02:21:11;;;;;;;5.72;4.03;;;6.70;88.30;;;;;;2084520;28;20179;-66
2021/03/11 02:22:51;;;;;;;5.25;3.80;;;6.70;88.70;;;;;;2081382;28;20197;-66
2021/03/11 02:24:48;;;;;;;6.45;3.22;;;6.80;86.80;;;;;;2078364;28;20259;-66
2021/03/11 02:26:12;;;;;;;5.68;3.28;;;6.80;84.90;;;;;;2089263;28;20183;-66
2021/03/11 02:27:44;;;;;;;7.32;3.67;;;6.90;85.50;;;;;;2089827;28;20179;-66
2021/03/11 02:29:08;;;;;;;6.13;3.75;;;6.90;85.40;;;;;;2081276;28;20177;-66
2021/03/11 02:30:10;;;;;;;5.20;3.33;;;6.90;84.30;;;;;;2075872;28;20161;-65
2021/03/11 02:31:10;;;;;;;5.53;3.45;;;6.90;82.40;;;;;;2072467;28;20799;-65
2021/03/11 02:32:12;;;;;;;5.17;3.87;;;7.00;82.20;;;;;;2081359;28;20180;-63
2021/03/11 02:33:14;;;;;;;8.00;3.50;;;7.00;82.40;;;;;;2081102;28;20330;-63
2021/03/11 02:34:25;;;;;;;5.30;3.00;;;7.00;82.10;;;;;;2072990;28;20280;-63
2021/03/11 02:35:27;;;;;;;6.20;3.72;;;7.00;80.80;;;;;;2082576;28;20225;-64
2021/03/11 02:36:28;;;;;;;5.43;3.67;;;7.00;80.90;;;;;;2081101;28;20712;-64
2021/03/11 02:37:43;;;;;;;6.90;3.75;;;7.10;80.70;;;;;;2072905;28;20185;-64
2021/03/11 02:38:46;;;;;;;5.07;3.30;;;7.10;82.10;;;;;;2075199;28;20636;-65
2021/03/11 02:39:55;;;;;;;4.43;3.40;;;7.10;80.50;;;;;;2073008;28;20184;-63
2021/03/11 02:41:00;;;;;;;5.55;3.58;;;7.10;81.20;;;;;;2080477;28;20262;-62
2021/03/11 02:42:01;;;;;;;6.53;3.50;;;7.10;81.20;;;;;;2080941;28;20266;-63
2021/03/11 02:43:04;;;;;;;5.77;3.20;;;7.10;81.20;;;;;;2081211;28;20193;-65
2021/03/11 02:44:06;;;;;;;5.28;3.60;;;7.10;81.60;;;;;;2081071;28;20238;-64
2021/03/11 02:45:12;;;;;;;5.45;3.72;;;7.10;82.90;;;;;;2081262;28;20191;-64
2021/03/11 02:46:15;;;;;;;8.63;3.90;;;7.10;81.10;;;;;;2080955;28;20179;-63
2021/03/11 02:47:16;;;;;;;5.95;3.92;;;7.10;80.20;;;;;;2072518;28;20651;-65
2021/03/11 02:48:18;;;;;;;7.20;3.50;;;7.20;81.40;;;;;;2081042;28;20189;-63
2021/03/11 02:49:21;;;;;;;5.30;3.70;;;7.10;81.80;;;;;;2080952;28;20184;-64
2021/03/11 02:50:23;;;;;;;7.35;3.45;;;7.10;84.10;;;;;;2081146;28;20660;-65
2021/03/11 02:51:24;;;;;;;5.80;3.00;;;7.10;88.40;;;;;;2072569;28;20186;-64
2021/03/11 02:52:27;;;;;;;5.67;3.40;;;7.10;88.80;;;;;;2080873;28;20181;-62
2021/03/11 02:53:28;;;;;;;5.32;3.40;;;7.10;90.30;;;;;;2081091;28;20239;-64
2021/03/11 02:54:29;;;;;;;4.30;3.30;;;7.00;91.50;;;;;;2081157;28;20570;-65
2021/03/11 02:55:32;;;;;;;4.95;3.65;;;7.00;93.10;;;;;;2081116;28;20948;-64
2021/03/11 02:56:35;;;;;;;4.55;3.25;;;6.90;94.00;;;;;;2072938;28;20275;-64
2021/03/11 02:57:37;;;;;;;7.20;3.03;;;6.90;94.40;;;;;;2073098;28;20178;-63
2021/03/11 02:58:40;;;;;;;4.50;3.17;;;6.90;95.40;;;;;;2073022;28;20188;-64
2021/03/11 02:59:41;;;;;;;5.78;3.85;;;6.80;95.90;;;;;;2072964;28;20208;-64
2021/03/11 03:00:43;;;;;;;4.45;3.20;;;6.70;96.70;;;;;;2072733;28;20185;-64
2021/03/11 03:01:45;;;;;;;4.20;3.20;;;6.70;97.60;;;;;;2072541;28;20276;-64
2021/03/11 03:02:46;;;;;;;6.00;2.72;;;6.60;98.00;;;;;;2080906;28;20267;-64
2021/03/11 03:03:48;;;;;;;5.32;3.17;;;6.50;98.60;;;;;;2089791;28;20190;-63
2021/03/11 03:04:55;;;;;;;5.65;3.08;;;6.50;99.30;;;;;;2080872;28;20199;-62
2021/03/11 03:05:58;;;;;;;5.07;3.40;;;6.50;99.70;;;;;;2073565;28;20161;-63
2021/03/11 03:07:00;;;;;;;3.97;3.10;;;6.40;99.90;;;;;;2072950;28;20688;-64
2021/03/11 03:08:01;;;;;;;3.85;2.70;;;6.30;99.90;;;;;;2081108;28;20175;-64
2021/03/11 03:09:04;;;;;;;4.32;3.20;;;6.30;99.90;;;;;;2080814;28;20222;-64
2021/03/11 03:10:06;;;;;;;5.88;2.90;;;6.30;99.90;;;;;;2081282;28;20181;-64
2021/03/11 03:11:08;;;;;;;4.97;3.20;;;6.20;99.90;;;;;;2080254;28;20210;-64
2021/03/11 03:12:09;;;;;;;3.72;3.00;;;6.20;99.90;;;;;;2072771;28;20691;-66
2021/03/11 03:13:14;;;;;;;4.43;3.05;;;6.10;99.90;;;;;;2072881;28;20279;-64
2021/03/11 03:14:17;;;;;;;4.97;3.10;;;6.00;99.90;;;;;;2073262;28;20161;-65
2021/03/11 03:15:23;;;;;;;5.22;3.30;;;6.00;99.90;;;;;;2073011;28;20569;-64
2021/03/11 03:16:24;;;;;;;4.25;3.22;;;5.90;99.90;;;;;;2081375;28;20238;-64
2021/03/11 03:17:25;;;;;;;4.72;2.97;;;5.90;99.90;;;;;;2089655;28;20163;-65
2021/03/11 03:18:29;;;;;;;4.90;3.30;;;5.90;99.90;;;;;;2080913;28;20195;-63
2021/03/11 03:19:30;;;;;;;3.55;2.80;;;5.90;99.90;;;;;;2064898;28;20437;-66
2021/03/11 03:20:32;;;;;;;5.38;2.80;;;5.90;99.90;;;;;;2064925;28;20188;-64
2021/03/11 03:21:33;;;;;;;4.13;2.72;;;5.90;99.90;;;;;;2072259;28;20187;-64
2021/03/11 03:22:36;;;;;;;5.80;2.95;;;5.80;99.90;;;;;;2081037;28;20198;-63
2021/03/11 03:23:40;;;;;;;4.80;2.90;;;5.80;99.90;;;;;;2080864;28;20238;-65
2021/03/11 03:24:43;;;;;;;6.13;3.33;;;5.90;99.90;;;;;;2081044;28;20575;-65
2021/03/11 03:25:50;;;;;;;4.85;3.30;;;5.80;99.90;;;;;;2080830;28;20216;-65
2021/03/11 03:26:51;;;;;;;4.70;3.20;;;5.80;99.90;;;;;;2081698;28;20207;-65
2021/03/11 03:27:52;;;;;;;5.67;3.57;;;5.80;99.90;;;;;;2089233;28;20612;-65
2021/03/11 03:28:52;;;;;;;4.97;3.33;;;5.80;99.90;;;;;;2089410;28;20180;-64
2021/03/11 03:29:53;;;;;;;5.03;3.23;;;5.80;99.90;;;;;;2089189;28;20187;-65
2021/03/11 03:30:53;;;;;;;5.07;3.00;;;5.70;99.90;;;;;;2088899;28;20184;-66
2021/03/11 03:31:55;;;;;;;5.70;3.40;;;5.70;99.90;;;;;;2089388;28;20198;-66
2021/03/11 03:32:56;;;;;;;6.65;3.67;;;5.80;99.90;;;;;;2089662;28;20182;-65
2021/03/11 03:33:56;;;;;;;4.45;3.00;;;5.80;99.90;;;;;;2089328;28;20252;-64
2021/03/11 03:34:57;;;;;;;5.53;3.37;;;5.80;99.90;;;;;;2089661;28;20183;-65
2021/03/11 03:35:58;;;;;;;4.57;3.57;;;5.70;99.90;;;;;;2089161;28;20182;-65
2021/03/11 03:36:59;;;;;;;5.57;3.47;;;5.70;99.90;;;;;;2089477;28;20204;-64
2021/03/11 03:38:00;;;;;;;4.45;2.80;;;5.70;99.90;;;;;;2089626;28;20232;-64
2021/03/11 03:39:01;;;;;;;3.93;3.10;;;5.70;99.90;;;;;;2089641;28;20251;-64
2021/03/11 03:40:05;;;;;;;5.83;3.40;;;5.80;99.90;;;;;;2089445;28;20226;-64
2021/03/11 03:41:06;;;;;;;4.25;3.30;;;5.70;99.90;;;;;;2079932;28;20426;-64
2021/03/11 03:42:11;;;;;;;4.75;3.28;;;5.70;99.90;;;;;;2080503;28;20184;-64
2021/03/11 03:43:19;;;;;;;5.78;3.75;;;5.70;99.90;;;;;;2080826;28;20175;-65
2021/03/11 03:44:24;;;;;;;3.85;2.83;;;5.70;99.90;;;;;;2073290;28;20167;-65
2021/03/11 03:45:34;;;;;;;5.50;3.35;;;5.80;99.90;;;;;;2081448;28;20663;-66
2021/03/11 03:46:35;;;;;;;4.38;2.78;;;5.70;99.90;;;;;;2080460;28;20208;-63
2021/03/11 03:47:36;;;;;;;4.45;3.20;;;5.70;99.90;;;;;;2072443;28;20192;-63
2021/03/11 03:48:40;;;;;;;4.13;3.23;;;5.70;99.90;;;;;;2064219;28;20787;-64
2021/03/11 03:49:41;;;;;;;5.22;3.35;;;5.70;99.90;;;;;;2065247;28;20188;-63
2021/03/11 03:50:47;;;;;;;4.60;3.08;;;5.70;99.90;;;;;;2072303;28;20231;-65
2021/03/11 03:51:52;;;;;;;5.55;3.30;;;5.70;99.90;;;;;;2072572;28;20179;-63
2021/03/11 03:52:54;;;;;;;5.85;3.58;;;5.70;99.90;;;;;;2081201;28;20231;-63
2021/03/11 03:54:06;;;;;;;4.47;3.10;;;5.70;99.90;;;;;;2080590;28;20220;-64
2021/03/11 03:55:10;;;;;;;4.32;3.03;;;5.70;99.90;;;;;;2080714;28;20571;-64
2021/03/11 03:56:28;;;;;;;3.80;2.92;;;5.80;99.90;;;;;;2072718;28;20211;-64
2021/03/11 03:57:31;;;;;;;3.92;3.25;;;5.80;99.90;;;;;;2074478;28;20229;-64
2021/03/11 03:58:33;;;;;;;5.03;3.20;;;5.80;99.90;;;;;;2077677;28;20192;-63
2021/03/11 03:59:37;;;;;;;7.80;2.80;;;5.80;99.90;;;;;;2088702;28;20666;-64
2021/03/11 04:00:39;;;;;;;4.50;3.03;;;5.80;99.90;;;;;;2088684;28;20183;-63
2021/03/11 04:01:42;;;;;;;4.90;3.22;;;5.80;99.90;;;;;;2080054;28;20178;-64
2021/03/11 04:02:43;;;;;;;5.32;2.95;;;5.80;99.90;;;;;;2080600;28;20176;-65
2021/03/11 04:03:46;;;;;;;4.72;3.33;;;5.80;99.90;;;;;;2080550;28;20673;-64
2021/03/11 04:04:50;;;;;;;4.35;3.00;;;5.80;99.90;;;;;;2080776;28;20242;-65
2021/03/11 04:05:55;;;;;;;4.38;2.88;;;5.80;99.90;;;;;;2080877;28;20776;-63
2021/03/11 04:06:57;;;;;;;3.92;2.72;;;5.70;99.90;;;;;;2080901;28;20215;-64
2021/03/11 04:07:58;;;;;;;4.45;3.20;;;5.70;99.90;;;;;;2080673;28;20203;-63
2021/03/11 04:09:07;;;;;;;4.97;3.42;;;5.70;99.90;;;;;;2080438;28;20181;-64
2021/03/11 04:10:09;;;;;;;4.40;2.75;;;5.70;99.90;;;;;;2081543;28;20160;-63
2021/03/11 04:11:10;;;;;;;4.25;3.08;;;5.80;99.90;;;;;;2079935;28;20188;-63
2021/03/11 04:12:12;;;;;;;3.78;2.85;;;5.80;99.90;;;;;;2080476;28;20594;-64
2021/03/11 04:13:13;;;;;;;4.65;3.38;;;5.70;99.90;;;;;;2080590;28;20203;-63
2021/03/11 04:14:16;;;;;;;4.33;3.50;;;5.70;99.90;;;;;;2080427;28;20243;-63
2021/03/11 04:15:17;;;;;;;4.45;3.42;;;5.70;99.90;;;;;;2073351;28;20257;-63
2021/03/11 04:16:19;;;;;;;5.68;3.15;;;5.70;99.90;;;;;;2080339;28;20257;-63
2021/03/11 04:17:20;;;;;;;3.47;2.92;;;5.60;99.90;;;;;;2080451;28;20163;-63
2021/03/11 04:18:21;;;;;;;6.72;3.30;;;5.50;99.90;;;;;;2080690;28;20178;-65
2021/03/11 04:19:24;;;;;;;3.72;3.25;;;5.50;99.90;;;;;;2080354;28;20171;-65
2021/03/11 04:20:25;;;;;;;4.72;3.60;;;5.50;99.90;;;;;;2072772;28;20188;-63
2021/03/11 04:21:28;;;;;;;3.28;2.95;;;5.50;99.90;;;;;;2071830;28;20185;-63
2021/03/11 04:22:29;;;;;;;4.88;3.38;;;5.40;99.90;;;;;;2080806;28;20199;-64
2021/03/11 04:23:30;;;;;;;3.83;2.90;;;5.40;99.90;;;;;;2080578;28;20188;-63
2021/03/11 04:24:33;;;;;;;4.30;3.10;;;5.40;99.90;;;;;;2080412;28;20214;-65
2021/03/11 04:25:34;;;;;;;5.25;3.33;;;5.40;99.90;;;;;;2072518;28;20272;-63
2021/03/11 04:26:36;;;;;;;4.90;3.23;;;5.40;99.90;;;;;;2072125;28;20702;-64
2021/03/11 04:27:38;;;;;;;5.10;3.30;;;5.40;99.90;;;;;;2080623;28;20183;-64
2021/03/11 04:28:40;;;;;;;4.95;3.55;;;5.40;99.90;;;;;;2080496;28;20226;-65
2021/03/11 04:29:41;;;;;;;5.63;3.60;;;5.40;99.90;;;;;;2072325;28;20684;-64
2021/03/11 04:30:42;;;;;;;5.00;3.20;;;5.50;99.90;;;;;;2072326;28;20194;-64
2021/03/11 04:31:44;;;;;;;3.92;2.97;;;5.50;99.90;;;;;;2080087;28;20193;-64
2021/03/11 04:32:46;;;;;;;5.40;3.10;;;5.50;99.90;;;;;;2080689;28;20244;-65
2021/03/11 04:33:47;;;;;;;6.88;3.50;;;5.50;99.90;;;;;;2081310;28;20179;-64
2021/03/11 04:34:48;;;;;;;4.60;3.20;;;5.60;99.90;;;;;;2089502;28;20276;-63
2021/03/11 04:35:50;;;;;;;5.53;3.67;;;5.50;99.90;;;;;;2089091;28;20178;-65
2021/03/11 04:36:51;;;;;;;3.90;3.50;;;5.50;99.90;;;;;;2089506;28;20195;-64
2021/03/11 04:37:52;;;;;;;6.07;3.53;;;5.50;99.90;;;;;;2080535;28;20192;-63
2021/03/11 04:38:54;;;;;;;6.18;3.90;;;5.40;99.90;;;;;;2072449;28;20187;-64
2021/03/11 04:39:55;;;;;;;5.38;3.50;;;5.40;99.90;;;;;;2072438;28;20199;-64
2021/03/11 04:40:56;;;;;;;5.57;3.75;;;5.40;99.90;;;;;;2071563;28;20255;-65
2021/03/11 04:41:57;;;;;;;5.47;3.60;;;5.40;99.90;;;;;;2080133;28;20183;-65
2021/03/11 04:42:58;;;;;;;5.63;3.27;;;5.40;99.90;;;;;;2072135;28;20210;-64
2021/03/11 04:44:02;;;;;;;5.67;3.60;;;5.40;99.90;;;;;;2071942;28;20193;-64
2021/03/11 04:45:06;;;;;;;4.35;3.60;;;5.40;99.90;;;;;;2080807;28;20194;-63
2021/03/11 04:46:07;;;;;;;6.88;3.75;;;5.40;99.90;;;;;;2088692;28;20189;-64
2021/03/11 04:47:11;;;;;;;4.88;3.63;;;5.40;99.90;;;;;;2089004;28;20203;-63
2021/03/11 04:48:13;;;;;;;5.60;3.80;;;5.40;99.90;;;;;;2080095;28;20278;-63
2021/03/11 04:49:15;;;;;;;4.18;3.08;;;5.40;99.90;;;;;;2080508;28;20187;-64
2021/03/11 04:50:16;;;;;;;5.38;3.60;;;5.50;99.90;;;;;;2080009;28;20188;-64
2021/03/11 04:51:18;;;;;;;3.53;3.10;;;5.50;99.90;;;;;;2071319;28;20578;-63
2021/03/11 04:52:19;;;;;;;4.68;3.42;;;5.60;99.90;;;;;;2071928;28;20282;-63
2021/03/11 04:53:23;;;;;;;7.72;4.00;;;5.60;99.90;;;;;;2080275;28;20919;-64
2021/03/11 04:54:24;;;;;;;4.93;3.50;;;5.60;99.90;;;;;;2088799;28;21000;-64
2021/03/11 04:55:25;;;;;;;5.28;3.35;;;5.70;99.90;;;;;;2089014;28;20193;-64
2021/03/11 04:56:27;;;;;;;4.13;3.07;;;5.70;99.90;;;;;;2088680;28;20207;-64
2021/03/11 04:57:28;;;;;;;5.03;3.03;;;5.70;99.90;;;;;;2088789;28;20698;-64
2021/03/11 04:58:29;;;;;;;3.78;3.20;;;5.70;99.90;;;;;;2088744;28;20186;-63
2021/03/11 04:59:31;;;;;;;4.15;3.40;;;5.70;99.90;;;;;;2080061;28;20184;-64
2021/03/11 05:00:33;;;;;;;4.63;3.33;;;5.80;99.90;;;;;;2080027;28;20188;-64
2021/03/11 05:01:40;;;;;;;5.60;3.55;;;5.80;99.90;;;;;;2079577;28;20183;-64
2021/03/11 05:02:46;;;;;;;5.43;3.58;;;5.90;99.90;;;;;;2079892;28;20188;-63
2021/03/11 05:03:46;;;;;;;5.30;3.67;;;5.80;99.90;;;;;;2080853;28;20168;-63
2021/03/11 05:04:47;;;;;;;5.13;3.40;;;5.80;99.90;;;;;;2088748;28;20185;-63
2021/03/11 05:05:48;;;;;;;6.23;3.80;;;5.80;99.90;;;;;;2088920;28;20175;-64
2021/03/11 05:06:50;;;;;;;4.47;3.00;;;5.80;99.90;;;;;;2079843;28;20210;-63
2021/03/11 05:07:50;;;;;;;5.40;3.60;;;5.80;99.90;;;;;;2080059;28;20827;-63
2021/03/11 05:08:51;;;;;;;4.87;3.40;;;5.80;99.90;;;;;;2088845;28;20210;-64
2021/03/11 05:09:52;;;;;;;3.87;2.87;;;5.70;99.90;;;;;;2089005;28;20257;-63
2021/03/11 05:10:52;;;;;;;5.10;3.27;;;5.80;99.90;;;;;;2089315;28;20622;-64
2021/03/11 05:11:53;;;;;;;4.87;3.10;;;5.80;99.90;;;;;;2081655;28;20272;-63
2021/03/11 05:12:54;;;;;;;5.37;3.50;;;5.90;99.90;;;;;;2081319;28;20191;-63
2021/03/11 05:13:54;;;;;;;4.27;3.10;;;5.90;99.90;;;;;;2081620;28;20522;-65
2021/03/11 05:14:55;;;;;;;6.27;3.37;;;6.00;99.90;;;;;;2081597;28;20188;-63
2021/03/11 05:15:57;;;;;;;6.67;3.93;;;6.10;99.90;;;;;;2090345;28;20694;-65
2021/03/11 05:16:58;;;;;;;5.75;3.60;;;6.10;99.90;;;;;;2090174;28;20219;-64
2021/03/11 05:17:58;;;;;;;5.20;2.93;;;6.20;99.90;;;;;;2090486;28;20198;-65
2021/03/11 05:18:59;;;;;;;3.57;2.60;;;6.20;99.90;;;;;;2090338;28;20534;-63
2021/03/11 05:20:00;;;;;;;4.33;3.03;;;6.20;99.90;;;;;;2090327;28;20218;-65
2021/03/11 05:21:01;;;;;;;5.33;3.30;;;6.30;99.90;;;;;;2089704;28;20769;-65
2021/03/11 05:22:02;;;;;;;3.70;2.88;;;6.30;99.90;;;;;;2090134;28;20685;-65
2021/03/11 05:23:03;;;;;;;3.53;2.83;;;6.40;99.90;;;;;;2081428;28;20184;-65
2021/03/11 05:24:04;;;;;;;4.40;2.63;;;6.40;99.90;;;;;;2081263;28;20428;-65
2021/03/11 05:25:10;;;;;;;4.95;3.15;;;6.40;99.90;;;;;;2090235;28;20221;-65
2021/03/11 05:26:10;;;;;;;4.32;3.05;;;6.40;99.90;;;;;;2090179;28;20248;-64
2021/03/11 05:27:11;;;;;;;5.13;2.87;;;6.40;99.90;;;;;;2090276;28;20691;-65
2021/03/11 05:28:12;;;;;;;4.13;2.63;;;6.40;99.90;;;;;;2090172;28;20207;-65
2021/03/11 05:29:13;;;;;;;6.40;3.63;;;6.50;99.90;;;;;;2090259;28;20265;-65
2021/03/11 05:30:15;;;;;;;6.23;3.37;;;6.50;99.90;;;;;;2090177;28;20257;-65
2021/03/11 05:31:16;;;;;;;4.10;2.65;;;6.50;99.90;;;;;;2089598;28;20554;-65